createdAt,value
2023-01-29T00:02:49.730Z,53.45
2023-01-29T00:04:07.376Z,55.95
2023-01-29T00:05:27.814Z,52.90
2023-01-29T00:06:37.379Z,52.97
2023-01-29T00:07:49.329Z,60.30
2023-01-29T00:08:59.383Z,58.33
2023-01-29T00:10:10.229Z,66.97
2023-01-29T00:11:27.164Z,72.07
2023-01-29T00:12:56.686Z,72.38
2023-01-29T00:14:03.227Z,79.85
2023-01-29T00:16:34.201Z,79.00
2023-01-29T00:17:42.002Z,79.53
2023-01-29T00:18:49.541Z,72.65
2023-01-29T00:19:57.617Z,73.72
2023-01-29T00:21:07.901Z,69.95
2023-01-29T00:22:18.663Z,72.28
2023-01-29T00:23:33.878Z,64.43
2023-01-29T00:25:09.785Z,67.53
2023-01-29T00:27:51.059Z,61.55
2023-01-29T00:29:05.590Z,55.33
2023-01-29T00:30:19.786Z,51.80
2023-01-29T00:31:27.833Z,51.97
2023-01-29T00:32:32.133Z,50.05
2023-01-29T00:33:37.361Z,45.92
2023-01-29T00:34:46.598Z,46.25
2023-01-29T00:35:55.211Z,47.03
2023-01-29T00:37:19.675Z,46.55
2023-01-29T00:38:24.190Z,46.13
2023-01-29T00:39:47.740Z,42.70
2023-01-29T00:41:25.447Z,39.80
2023-01-29T00:42:47.300Z,43.17
2023-01-29T00:44:07.823Z,42.83
2023-01-29T00:45:13.980Z,46.17
2023-01-29T00:46:17.642Z,40.05
2023-01-29T00:47:43.148Z,41.85
2023-01-29T00:48:48.674Z,43.75
2023-01-29T00:50:08.255Z,40.15
2023-01-29T00:51:16.416Z,39.20
2023-01-29T00:52:29.737Z,42.22
2023-01-29T00:53:40.671Z,43.58
2023-01-29T00:54:49.553Z,43.30
2023-01-29T00:55:55.221Z,41.45
2023-01-29T00:57:03.399Z,40.05
2023-01-29T00:58:13.438Z,39.70
2023-01-29T00:59:26.571Z,35.53
2023-01-29T01:00:35.560Z,38.88
2023-01-29T01:02:00.564Z,37.55
2023-01-29T01:03:20.112Z,32.50
2023-01-29T01:06:23.003Z,33.72
2023-01-29T01:07:29.262Z,34.00
2023-01-29T01:09:14.994Z,31.58
2023-01-29T01:10:39.854Z,32.63
2023-01-29T01:11:53.960Z,33.80
2023-01-29T01:13:26.833Z,34.30
2023-01-29T01:14:58.934Z,35.20
2023-01-29T01:18:12.086Z,35.63
2023-01-29T01:19:25.596Z,29.58
2023-01-29T01:20:46.274Z,32.42
2023-01-29T01:22:19.023Z,29.33
2023-01-29T01:23:56.305Z,31.17
2023-01-29T01:25:13.291Z,31.15
2023-01-29T01:26:23.993Z,32.05
2023-01-29T01:27:34.541Z,30.13
2023-01-29T01:28:55.372Z,29.38
2023-01-29T01:32:53.346Z,30.40
2023-01-29T01:34:06.093Z,31.92
2023-01-29T01:35:28.867Z,30.80
2023-01-29T01:37:01.240Z,28.35
2023-01-29T01:38:35.550Z,31.00
2023-01-29T01:41:29.945Z,29.58
2023-01-29T01:42:34.040Z,31.52
2023-01-29T01:44:11.015Z,28.90
2023-01-29T01:47:12.729Z,31.23
2023-01-29T01:48:26.682Z,29.25
2023-01-29T01:49:36.799Z,38.88
2023-01-29T01:51:16.704Z,32.88
2023-01-29T01:53:42.111Z,32.25
2023-01-29T02:00:35.965Z,32.08
2023-01-29T02:03:38.490Z,30.23
2023-01-29T02:05:09.148Z,33.53
2023-01-29T02:06:33.243Z,30.33
2023-01-29T02:08:03.638Z,31.75
2023-01-29T02:12:00.019Z,25.92
2023-01-29T02:13:05.813Z,24.33
2023-01-29T02:14:12.861Z,26.45
2023-01-29T02:15:16.365Z,25.00
2023-01-29T02:16:24.339Z,26.90
2023-01-29T02:17:37.857Z,24.63
2023-01-29T02:18:48.914Z,25.63
2023-01-29T02:20:11.604Z,27.02
2023-01-29T02:24:02.655Z,23.75
2023-01-29T02:25:59.764Z,21.83
2023-01-29T02:27:51.542Z,23.27
2023-01-29T02:29:31.780Z,24.05
2023-01-29T02:31:13.381Z,21.30
2023-01-29T02:32:55.457Z,22.50
2023-01-29T02:34:18.373Z,19.55
2023-01-29T02:36:03.588Z,19.75
2023-01-29T02:37:12.750Z,19.92
2023-01-29T02:38:52.638Z,21.80
2023-01-29T02:40:24.251Z,20.33
2023-01-29T02:42:05.910Z,22.08
2023-01-29T02:43:37.773Z,20.98
2023-01-29T02:45:07.588Z,21.05
2023-01-29T02:46:47.856Z,20.20
2023-01-29T02:48:08.152Z,21.05
2023-01-29T02:49:52.838Z,19.05
2023-01-29T02:51:22.837Z,19.30
2023-01-29T02:52:53.161Z,16.88
2023-01-29T02:56:24.817Z,16.30
2023-01-29T02:57:41.727Z,16.98
2023-01-29T02:59:10.740Z,16.45
2023-01-29T03:00:30.018Z,14.02
2023-01-29T03:01:46.060Z,16.05
2023-01-29T03:03:15.723Z,16.70
2023-01-29T03:04:30.956Z,15.45
2023-01-29T03:06:07.736Z,15.77
2023-01-29T03:07:45.599Z,15.57
2023-01-29T03:09:12.080Z,16.13
2023-01-29T03:10:33.965Z,13.93
2023-01-29T03:11:52.711Z,15.38
2023-01-29T03:13:27.390Z,15.10
2023-01-29T03:14:56.867Z,16.27
2023-01-29T03:16:18.473Z,12.70
2023-01-29T03:17:40.316Z,13.05
2023-01-29T03:19:02.512Z,14.23
2023-01-29T03:22:00.781Z,13.07
2023-01-29T03:23:18.822Z,13.00
2023-01-29T03:25:18.397Z,13.93
2023-01-29T03:26:52.505Z,13.85
2023-01-29T03:28:27.275Z,11.90
2023-01-29T03:30:05.896Z,11.50
2023-01-29T03:31:58.412Z,13.77
2023-01-29T03:33:34.628Z,11.63
2023-01-29T03:35:00.753Z,10.55
2023-01-29T03:36:41.976Z,9.75
2023-01-29T03:39:21.234Z,10.65
2023-01-29T03:40:48.508Z,10.35
2023-01-29T03:42:36.073Z,9.77
2023-01-29T03:44:14.131Z,9.48
2023-01-29T03:46:35.737Z,6.85
2023-01-29T03:48:00.243Z,9.43
2023-01-29T03:53:53.481Z,10.45
2023-01-29T03:55:26.718Z,9.88
2023-01-29T03:57:02.659Z,10.23
2023-01-29T03:58:16.476Z,11.15
2023-01-29T03:59:31.672Z,12.40
2023-01-29T04:00:59.758Z,9.18
2023-01-29T04:03:07.746Z,11.45
2023-01-29T04:04:31.114Z,11.55
2023-01-29T04:05:56.327Z,9.88
2023-01-29T04:07:29.006Z,12.18
2023-01-29T04:09:10.937Z,12.85
2023-01-29T04:10:45.818Z,12.90
2023-01-29T04:12:14.700Z,12.55
2023-01-29T04:15:31.933Z,11.63
2023-01-29T04:16:58.794Z,12.13
2023-01-29T04:19:55.244Z,10.07
2023-01-29T04:21:39.338Z,12.02
2023-01-29T04:23:16.722Z,13.52
2023-01-29T04:24:33.993Z,12.52
2023-01-29T04:25:59.604Z,12.45
2023-01-29T04:27:37.014Z,13.50
2023-01-29T04:29:23.451Z,11.55
2023-01-29T04:31:06.580Z,12.38
2023-01-29T04:32:51.678Z,13.10
2023-01-29T04:34:25.150Z,11.15
2023-01-29T04:35:56.376Z,13.23
2023-01-29T04:37:52.548Z,14.02
2023-01-29T04:39:20.747Z,10.32
2023-01-29T04:45:03.003Z,10.27
2023-01-29T04:46:08.843Z,11.18
2023-01-29T04:47:37.420Z,9.15
2023-01-29T04:49:30.472Z,8.85
2023-01-29T04:50:53.748Z,8.45
2023-01-29T04:52:12.881Z,10.30
2023-01-29T04:53:38.872Z,9.70
2023-01-29T04:55:03.440Z,8.95
2023-01-29T04:56:44.988Z,10.68
2023-01-29T04:58:08.580Z,9.70
2023-01-29T04:59:25.857Z,9.00
2023-01-29T05:00:52.556Z,9.55
2023-01-29T05:02:31.818Z,9.18
2023-01-29T05:03:53.727Z,10.13
2023-01-29T05:05:11.719Z,8.68
2023-01-29T05:06:31.567Z,9.10
2023-01-29T05:07:51.154Z,9.48
2023-01-29T05:10:31.995Z,9.43
2023-01-29T05:12:13.196Z,8.35
2023-01-29T05:13:22.495Z,10.20
2023-01-29T05:14:37.993Z,9.38
2023-01-29T05:16:07.651Z,10.25
2023-01-29T05:17:16.117Z,11.30
2023-01-29T05:18:20.949Z,11.00
2023-01-29T05:19:27.699Z,9.68
2023-01-29T05:20:45.266Z,11.15
2023-01-29T05:21:53.424Z,10.23
2023-01-29T05:22:58.448Z,10.38
2023-01-29T05:24:19.165Z,10.02
2023-01-29T05:25:29.460Z,9.40
2023-01-29T05:27:23.643Z,9.82
2023-01-29T05:28:32.048Z,9.20
2023-01-29T05:31:11.234Z,9.57
2023-01-29T05:32:47.437Z,10.07
2023-01-29T05:36:28.703Z,10.10
2023-01-29T05:39:05.772Z,10.98
2023-01-29T05:40:58.448Z,10.60
2023-01-29T05:42:57.445Z,8.98
2023-01-29T05:46:27.966Z,10.93
2023-01-29T05:52:55.656Z,8.57
2023-01-29T05:57:46.268Z,9.40
2023-01-29T05:59:44.656Z,12.82
2023-01-29T06:00:55.427Z,11.18
2023-01-29T06:03:45.107Z,12.40
2023-01-29T06:05:01.192Z,12.93
2023-01-29T06:06:09.734Z,12.25
2023-01-29T06:07:17.656Z,10.70
2023-01-29T06:08:25.628Z,11.60
2023-01-29T06:11:33.362Z,13.27
2023-01-29T06:13:01.561Z,10.55
2023-01-29T06:26:20.904Z,12.95
2023-01-29T06:27:39.570Z,12.07
2023-01-29T06:29:00.479Z,14.18
2023-01-29T06:30:35.213Z,16.42
2023-01-29T06:32:32.753Z,14.48
2023-01-29T06:34:02.253Z,12.55
2023-01-29T06:36:47.718Z,14.00
2023-01-29T06:38:35.810Z,13.38
2023-01-29T06:39:42.005Z,13.00
2023-01-29T06:41:05.178Z,13.27
2023-01-29T06:43:06.577Z,12.85
2023-01-29T06:44:42.844Z,15.68
2023-01-29T06:46:04.992Z,13.20
2023-01-29T06:47:30.622Z,13.38
2023-01-29T06:48:42.967Z,13.57
2023-01-29T06:50:06.520Z,13.07
2023-01-29T06:51:14.529Z,11.98
2023-01-29T06:52:19.175Z,12.68
2023-01-29T06:53:25.564Z,12.82
2023-01-29T06:57:11.190Z,14.10
2023-01-29T07:00:36.380Z,11.85
2023-01-29T07:01:48.239Z,14.02
2023-01-29T07:02:54.741Z,14.55
2023-01-29T07:04:00.222Z,11.75
2023-01-29T07:05:04.934Z,13.75
2023-01-29T07:06:10.538Z,14.85
2023-01-29T07:07:31.837Z,11.73
2023-01-29T07:08:41.031Z,11.38
2023-01-29T07:09:52.035Z,11.57
2023-01-29T07:11:16.282Z,15.63
2023-01-29T07:13:39.118Z,13.60
2023-01-29T07:14:47.360Z,13.23
2023-01-29T07:15:54.899Z,15.70
2023-01-29T07:17:22.886Z,12.35
2023-01-29T07:18:25.824Z,11.55
2023-01-29T07:19:36.349Z,12.75
2023-01-29T07:20:47.017Z,13.10
2023-01-29T07:22:04.444Z,11.68
2023-01-29T07:23:21.760Z,13.80
2023-01-29T07:25:25.975Z,20.27
2023-01-29T07:26:38.360Z,15.18
2023-01-29T07:29:51.185Z,13.90
2023-01-29T07:31:19.621Z,13.18
2023-01-29T07:32:51.300Z,17.45
2023-01-29T07:34:18.786Z,19.67
2023-01-29T07:41:40.492Z,15.68
2023-01-29T07:44:18.254Z,14.70
2023-01-29T12:51:44.118Z,12.65
2023-01-29T12:55:34.277Z,14.27
2023-01-29T12:57:20.016Z,15.27
2023-01-29T13:07:19.647Z,18.52
2023-01-29T13:09:02.697Z,19.77
2023-01-29T13:10:30.316Z,13.93
2023-01-29T13:12:03.847Z,15.30
2023-01-29T13:13:31.922Z,12.85
2023-01-29T13:14:52.930Z,14.48
2023-01-29T13:15:57.637Z,13.18
2023-01-29T13:17:26.657Z,14.05
2023-01-29T13:18:51.449Z,13.88
2023-01-29T13:20:13.515Z,13.73
2023-01-29T13:26:20.162Z,14.93
2023-01-29T13:30:39.273Z,19.10
2023-01-29T13:31:59.208Z,17.63
2023-01-29T13:33:55.595Z,21.25
2023-01-29T13:35:16.155Z,16.52
2023-01-29T13:36:39.200Z,27.52
2023-01-29T13:39:56.468Z,20.63
2023-01-29T13:41:38.325Z,20.23
2023-01-29T13:43:06.844Z,22.58
2023-01-29T13:44:44.955Z,15.98
2023-01-29T13:46:10.334Z,16.10
2023-01-29T13:47:36.549Z,14.50
2023-01-29T13:48:52.409Z,15.95
2023-01-29T13:50:25.747Z,14.80
2023-01-29T13:51:46.633Z,16.35
2023-01-29T13:53:07.917Z,14.70
2023-01-29T14:01:51.184Z,14.95
2023-01-29T14:04:39.199Z,14.65
2023-01-29T14:06:02.797Z,13.18
2023-01-29T14:11:27.814Z,12.85
2023-01-29T14:15:25.237Z,15.43
2023-01-29T14:16:54.663Z,15.02
2023-01-29T14:18:28.991Z,13.32
2023-01-29T14:20:03.225Z,13.02
2023-01-29T14:21:44.750Z,17.00
2023-01-29T14:23:11.606Z,15.80
2023-01-29T14:26:48.429Z,16.33
2023-01-29T14:28:09.891Z,17.60
2023-01-29T14:29:57.015Z,16.77
2023-01-29T14:31:17.595Z,17.33
2023-01-29T14:32:31.845Z,17.98
2023-01-29T14:33:45.844Z,18.90
2023-01-29T14:35:10.329Z,16.15
2023-01-29T14:36:37.375Z,13.23
2023-01-29T14:38:13.927Z,17.80
2023-01-29T14:39:33.396Z,16.35
2023-01-29T14:40:50.677Z,17.77
2023-01-29T14:43:06.472Z,17.92
2023-01-29T14:44:53.432Z,17.77
2023-01-29T14:47:02.717Z,16.40
2023-01-29T14:48:40.162Z,16.08
2023-01-29T14:50:00.621Z,14.73
2023-01-29T14:51:22.359Z,15.67
2023-01-29T14:53:04.989Z,17.58
2023-01-29T14:54:41.711Z,15.10
2023-01-29T14:56:20.706Z,17.63
2023-01-29T15:04:14.038Z,24.75
2023-01-29T15:05:58.963Z,18.40
2023-01-29T15:11:04.065Z,17.98
2023-01-29T15:17:13.528Z,20.17
2023-01-29T15:19:12.738Z,18.80
2023-01-29T15:20:56.951Z,19.98
2023-01-29T15:24:39.622Z,26.70
2023-01-29T15:33:43.532Z,25.27
2023-01-29T15:38:43.676Z,21.40
2023-01-29T15:50:08.823Z,21.52
2023-01-29T15:58:08.257Z,25.80
2023-01-29T16:02:53.634Z,21.25
2023-01-29T16:04:30.599Z,21.40
2023-01-29T16:05:45.467Z,22.10
2023-01-29T16:07:36.495Z,21.98
2023-01-29T16:24:03.022Z,21.48
2023-01-29T16:26:20.585Z,20.73
2023-01-29T16:42:23.997Z,21.23
2023-01-29T16:53:00.038Z,23.52
2023-01-29T16:54:19.014Z,23.23
2023-01-29T16:58:04.476Z,23.25
2023-01-29T17:01:53.621Z,19.02
2023-01-29T17:04:20.572Z,21.35
2023-01-29T17:05:33.180Z,24.33
2023-01-29T17:10:13.297Z,22.33
2023-01-29T17:12:24.342Z,25.95
2023-01-29T17:14:38.907Z,25.33
2023-01-29T17:22:29.112Z,21.95
2023-01-29T17:24:44.415Z,22.55
2023-01-29T17:29:10.057Z,26.83
2023-01-29T17:31:12.157Z,24.48
2023-01-29T17:33:54.012Z,25.38
2023-01-29T17:40:12.534Z,26.90
2023-01-29T17:46:14.665Z,24.60
2023-01-29T17:53:02.882Z,21.17
2023-01-29T17:54:29.519Z,24.70
2023-01-29T17:57:42.279Z,26.92
2023-01-29T17:58:52.477Z,22.48
2023-01-29T18:00:03.976Z,23.63
2023-01-29T18:01:45.682Z,26.17
2023-01-29T18:02:53.465Z,23.92
2023-01-29T18:05:01.479Z,22.20
2023-01-29T18:10:23.532Z,20.95
2023-01-29T18:11:34.669Z,23.98
2023-01-29T18:13:17.842Z,21.23
2023-01-29T18:23:35.995Z,22.42
2023-01-29T18:24:51.374Z,20.63
2023-01-29T18:32:58.008Z,23.92
2023-01-29T18:34:32.421Z,22.55
2023-01-29T18:35:57.477Z,18.20
2023-01-29T18:39:31.981Z,19.83
2023-01-29T18:40:54.344Z,20.07
2023-01-29T18:42:31.671Z,20.17
2023-01-29T18:43:50.357Z,20.73
2023-01-29T18:45:13.388Z,19.05
2023-01-29T19:04:42.592Z,20.38
2023-01-29T19:06:06.066Z,20.80
2023-01-29T19:08:34.545Z,20.17
2023-01-29T19:10:08.281Z,21.80
2023-01-29T20:08:42.286Z,19.33
2023-01-29T22:43:25.937Z,23.05
2023-01-29T22:46:36.523Z,19.63
2023-01-29T22:52:15.212Z,20.83
2023-01-29T22:54:52.023Z,19.58
2023-01-29T22:56:04.866Z,20.40
2023-01-29T22:58:43.886Z,25.20
2023-01-29T23:00:09.800Z,19.45
2023-01-29T23:01:40.782Z,21.27
2023-01-29T23:04:57.267Z,21.90
2023-01-29T23:17:06.381Z,20.95
2023-01-29T23:23:12.127Z,22.20
2023-01-29T23:29:29.029Z,21.92
2023-01-29T23:38:38.400Z,20.48
2023-01-29T23:40:38.039Z,19.13
